Time;durP1;ratioP1;P1;durP2;ratioP2;P2;SDS_P1;SDS_P2;PMS_P1;PMS_P2;Temp;Humidity;BMP_temperature;BMP_pressure;BME280_temperature;BME280_humidity;BME280_pressure;Samples;Min_cycle;Max_cycle;Signal;HPM_P1;HPM_P2
2022/07/03 00:00:23;;;;;;;5.32;2.40;;;;;;;26.62;46.27;100907.19;4955774;28;20066;-79
2022/07/03 00:03:09;;;;;;;6.18;2.88;;;;;;;26.55;46.13;100905.31;4961961;28;20423;-80
2022/07/03 00:05:54;;;;;;;7.28;2.78;;;;;;;26.55;46.52;100907.31;4966011;28;20530;-80
2022/07/03 00:08:38;;;;;;;;;;;;;;;26.32;47.24;100900.41;4968050;28;20047;-80
2022/07/03 00:11:23;;;;;;;8.52;3.38;;;;;;;26.35;47.08;100899.59;4964465;28;19918;-80
2022/07/03 00:14:08;;;;;;;5.05;3.00;;;;;;;26.36;46.83;100901.16;4962168;28;20054;-80
2022/07/03 00:16:54;;;;;;;5.90;2.40;;;;;;;26.55;47.10;100907.31;4963907;29;20042;-81
2022/07/03 00:19:39;;;;;;;7.68;3.03;;;;;;;26.67;46.62;100901.94;4964227;28;20046;-79
2022/07/03 00:22:25;;;;;;;9.07;4.40;;;;;;;26.69;46.59;100905.09;4961097;28;20046;-80
2022/07/03 00:25:13;;;;;;;7.03;2.78;;;;;;;26.72;46.21;100914.63;4958155;29;20452;-79
2022/07/03 00:27:58;;;;;;;8.77;3.28;;;;;;;26.76;46.36;100907.81;4968046;28;20055;-80
2022/07/03 00:30:47;;;;;;;8.60;2.92;;;;;;;26.66;46.15;100913.53;4940304;29;20063;-79
2022/07/03 00:33:34;;;;;;;14.57;2.80;;;;;;;26.59;46.20;100908.03;4938910;29;20055;-80
2022/07/03 00:36:20;;;;;;;9.25;3.72;;;;;;;26.60;46.32;100899.25;4959003;29;20055;-80
2022/07/03 00:39:05;;;;;;;11.25;2.88;;;;;;;26.62;46.40;100901.63;4958762;29;20124;-79
2022/07/03 00:42:00;;;;;;;11.10;2.75;;;;;;;26.49;47.18;100903.41;4961004;28;20660;-78
2022/07/03 00:44:56;;;;;;;6.25;2.55;;;;;;;26.58;46.36;100895.31;4961241;28;20046;-78
2022/07/03 00:47:42;;;;;;;14.15;2.42;;;;;;;26.57;46.58;100891.72;4937368;29;20420;-80
2022/07/03 00:50:33;;;;;;;10.27;2.88;;;;;;;26.59;46.84;100894.88;4939452;29;20039;-80
2022/07/03 00:53:27;;;;;;;15.63;3.80;;;;;;;26.57;46.59;100893.72;4945790;29;20063;-80
2022/07/03 00:56:15;;;;;;;6.97;3.25;;;;;;;26.41;47.38;100897.16;4953769;29;20050;-79
2022/07/03 00:59:01;;;;;;;10.13;2.83;;;;;;;26.42;47.17;100895.91;4962047;28;20054;-81
2022/07/03 01:01:49;;;;;;;7.82;3.45;;;;;;;26.34;47.27;100894.44;4965547;28;20050;-79
2022/07/03 01:04:52;;;;;;;5.82;3.13;;;;;;;26.41;46.73;100888.78;4963799;28;20054;-78
2022/07/03 01:07:57;;;;;;;8.48;2.90;;;;;;;26.47;46.83;100880.72;4960134;29;20038;-80
2022/07/03 01:10:47;;;;;;;;;;;;;;;26.48;46.65;100885.88;4960908;29;20050;-80
2022/07/03 01:13:39;;;;;;;8.70;2.67;;;;;;;26.53;46.63;100890.19;4965327;28;19914;-80
2022/07/03 01:16:49;;;;;;;5.20;2.38;;;;;;;26.43;46.89;100891.91;4964220;29;20046;-79
2022/07/03 01:19:43;;;;;;;6.32;2.10;;;;;;;26.46;46.55;100884.72;4966666;28;20049;-80
2022/07/03 01:22:43;;;;;;;7.07;2.55;;;;;;;26.26;46.84;100879.78;4957812;28;20058;-80
2022/07/03 01:25:48;;;;;;;7.90;2.60;;;;;;;26.17;47.24;100885.06;4958993;29;20046;-81
2022/07/03 01:28:40;;;;;;;7.53;2.88;;;;;;;26.17;47.53;100890.63;4964002;29;20050;-81
2022/07/03 01:31:26;;;;;;;11.15;2.90;;;;;;;26.10;47.13;100885.16;4962956;28;20046;-81
2022/07/03 01:34:16;;;;;;;10.70;2.92;;;;;;;26.13;47.21;100892.69;4969412;28;20054;-81
2022/07/03 01:37:03;;;;;;;5.97;2.63;;;;;;;26.24;47.13;100890.59;4961487;28;20062;-81
2022/07/03 01:39:52;;;;;;;6.85;2.60;;;;;;;26.33;46.58;100884.50;4961957;29;20428;-81
2022/07/03 01:42:42;;;;;;;4.55;2.38;;;;;;;26.37;46.46;100879.66;4961806;29;20046;-81
2022/07/03 01:45:28;;;;;;;5.55;2.15;;;;;;;26.34;46.29;100875.72;4953692;29;20070;-81
2022/07/03 01:48:14;;;;;;;7.10;2.40;;;;;;;26.26;46.71;100874.22;4965748;28;20081;-80
2022/07/03 01:51:00;;;;;;;6.22;2.78;;;;;;;26.28;46.60;100877.38;4970962;28;20058;-80
2022/07/03 01:53:47;;;;;;;3.58;1.98;;;;;;;26.29;46.17;100870.59;4966151;28;20070;-80
2022/07/03 01:56:33;;;;;;;5.25;2.38;;;;;;;26.28;46.13;100871.81;4969848;28;20074;-80
2022/07/03 01:59:18;;;;;;;7.13;2.60;;;;;;;26.26;46.01;100879.78;4965485;28;20054;-81
2022/07/03 02:02:24;;;;;;;3.72;1.95;;;;;;;26.28;46.49;100876.59;4966308;28;20062;-80
2022/07/03 02:05:26;;;;;;;9.48;2.63;;;;;;;26.25;46.50;100875.44;4966332;28;20050;-81
2022/07/03 02:08:48;;;;;;;7.40;2.40;;;;;;;26.37;46.21;100874.06;4965080;29;20070;-81
2022/07/03 02:11:44;;;;;;;24.70;2.88;;;;;;;26.39;45.84;100872.44;4964164;28;20524;-80
2022/07/03 02:14:36;;;;;;;5.53;2.25;;;;;;;26.40;45.57;100867.66;4947139;29;20051;-81
2022/07/03 02:17:21;;;;;;;10.77;2.33;;;;;;;26.35;45.32;100868.13;4947061;29;20042;-81
2022/07/03 02:20:08;;;;;;;4.65;2.17;;;;;;;26.38;45.54;100870.06;4968566;28;20047;-82
2022/07/03 02:22:58;;;;;;;11.73;2.70;;;;;;;26.42;45.48;100867.22;4966801;28;20228;-81
2022/07/03 02:25:45;;;;;;;5.85;2.63;;;;;;;26.32;45.45;100860.59;4968547;28;20055;-81
2022/07/03 02:28:39;;;;;;;6.78;2.25;;;;;;;26.34;45.54;100861.75;4962954;29;20050;-81
2022/07/03 02:31:26;;;;;;;3.70;2.10;;;;;;;26.28;45.45;100863.44;4969826;28;20051;-80
2022/07/03 02:34:17;;;;;;;5.80;2.10;;;;;;;26.25;45.49;100866.28;4972659;28;20050;-80
2022/07/03 02:37:19;;;;;;;6.13;3.08;;;;;;;26.36;45.15;100864.91;4971034;28;20051;-81
2022/07/03 02:40:16;;;;;;;3.72;1.98;;;;;;;26.32;45.10;100864.16;4976136;28;20054;-80
2022/07/03 02:43:01;;;;;;;4.10;2.17;;;;;;;26.34;45.17;100872.13;4967923;28;20516;-81
2022/07/03 02:49:19;;;;;;;7.85;2.00;;;;;;;26.26;45.41;100868.63;4971054;28;20419;-81
2022/07/03 02:52:38;;;;;;;6.15;2.00;;;;;;;26.21;45.26;100865.50;4966163;28;20078;-80
2022/07/03 02:55:32;;;;;;;5.53;2.42;;;;;;;26.22;45.70;100872.69;4968908;29;20069;-80
2022/07/03 02:58:42;;;;;;;8.85;1.98;;;;;;;26.20;45.53;100864.72;4974149;28;20046;-80
2022/07/03 03:01:32;;;;;;;5.10;2.10;;;;;;;26.21;45.68;100865.50;4969238;28;20050;-80
2022/07/03 03:04:30;;;;;;;10.45;2.25;;;;;;;26.18;45.73;100858.75;4967175;29;20050;-79
2022/07/03 03:07:17;;;;;;;7.43;2.08;;;;;;;26.25;45.67;100871.84;4971623;28;20051;-80
2022/07/03 03:10:02;;;;;;;2.75;1.83;;;;;;;26.17;46.05;100862.75;4967761;28;20054;-80
2022/07/03 03:12:56;;;;;;;9.30;3.15;;;;;;;26.17;45.75;100865.53;4962395;29;20058;-80
2022/07/03 03:15:56;;;;;;;8.43;2.58;;;;;;;26.22;45.72;100865.09;4972730;28;20043;-81
2022/07/03 03:18:41;;;;;;;7.45;2.35;;;;;;;26.18;45.92;100866.34;4957765;29;20059;-81
2022/07/03 03:21:28;;;;;;;6.90;2.22;;;;;;;26.05;46.02;100857.75;4944566;29;20055;-81
2022/07/03 03:24:39;;;;;;;5.03;2.35;;;;;;;25.98;46.10;100864.19;4978317;28;20058;-83
2022/07/03 03:27:25;;;;;;;4.60;2.22;;;;;;;26.03;46.22;100860.16;4969070;28;20046;-81
2022/07/03 03:30:10;;;;;;;4.95;2.15;;;;;;;25.96;46.30;100863.00;4969825;28;20523;-81
2022/07/03 03:32:55;;;;;;;5.43;2.15;;;;;;;26.03;46.36;100870.50;4964476;28;20428;-80
2022/07/03 03:35:40;;;;;;;5.00;2.35;;;;;;;26.03;46.37;100868.50;4964817;28;20058;-80
2022/07/03 03:38:25;;;;;;;3.58;2.10;;;;;;;26.10;45.99;100859.28;4969226;28;20046;-80
2022/07/03 03:41:09;;;;;;;;;;;;;;;26.08;46.17;100864.47;4969936;28;20055;-80
2022/07/03 03:43:53;;;;;;;4.72;2.08;;;;;;;26.06;46.47;100873.25;4963872;29;19918;-80
2022/07/03 03:46:38;;;;;;;10.60;2.00;;;;;;;26.09;46.21;100869.63;4969875;28;20047;-81
2022/07/03 03:49:23;;;;;;;7.53;1.77;;;;;;;26.01;46.61;100870.91;4962922;29;20408;-81
2022/07/03 03:52:07;;;;;;;7.43;2.53;;;;;;;25.78;46.47;100879.94;4976339;28;20058;-80
2022/07/03 03:54:52;;;;;;;5.88;2.40;;;;;;;24.69;50.01;100881.63;4963251;29;20046;-80
2022/07/03 03:57:38;;;;;;;9.90;2.08;;;;;;;25.09;49.10;100875.41;4963420;29;20055;-80
2022/07/03 04:00:22;;;;;;;7.55;2.00;;;;;;;25.39;48.06;100882.31;4969307;28;20069;-79
2022/07/03 04:03:07;;;;;;;;;;;;;;;25.22;48.80;100888.81;4964451;28;20058;-80
2022/07/03 04:05:52;;;;;;;7.83;2.00;;;;;;;25.38;48.15;100884.31;4968489;28;19914;-79
2022/07/03 04:08:37;;;;;;;8.95;2.92;;;;;;;25.49;47.77;100887.78;4962629;29;20046;-81
2022/07/03 04:11:21;;;;;;;9.27;2.72;;;;;;;25.31;48.70;100892.72;4968506;28;20054;-79
2022/07/03 04:14:07;;;;;;;7.63;2.22;;;;;;;25.41;48.81;100886.25;4968039;28;20058;-79
2022/07/03 04:16:52;;;;;;;10.90;2.40;;;;;;;25.57;48.07;100887.72;4967582;28;20519;-79
2022/07/03 04:19:37;;;;;;;3.67;2.00;;;;;;;25.40;48.88;100884.66;4959193;29;20792;-80
2022/07/03 04:22:22;;;;;;;7.60;2.65;;;;;;;25.49;48.78;100887.78;4980818;28;20051;-79
2022/07/03 04:25:07;;;;;;;6.43;2.00;;;;;;;24.95;51.02;100883.06;4964970;29;20050;-80
2022/07/03 04:27:51;;;;;;;5.68;2.00;;;;;;;25.42;48.75;100887.84;4973265;28;20046;-80
2022/07/03 04:30:36;;;;;;;11.35;2.47;;;;;;;25.29;50.23;100886.00;4945834;29;20050;-79
2022/07/03 04:33:21;;;;;;;4.70;2.10;;;;;;;25.49;48.40;100882.22;5098816;23;20054;-58
2022/07/03 04:36:06;;;;;;;3.72;2.30;;;;;;;25.71;47.86;100890.38;4949327;29;20054;-57
2022/07/03 04:38:51;;;;;;;5.47;2.53;;;;;;;25.84;47.94;100892.22;4942662;29;20040;-57
2022/07/03 04:41:36;;;;;;;7.75;2.08;;;;;;;26.04;48.10;100886.03;4923977;29;20054;-58
2022/07/03 04:44:21;;;;;;;5.00;2.97;;;;;;;26.26;48.08;100879.78;4928091;29;20506;-58
2022/07/03 04:47:06;;;;;;;8.63;2.10;;;;;;;25.73;50.40;100890.75;4918030;29;20121;-58
2022/07/03 04:49:51;;;;;;;7.07;2.85;;;;;;;25.64;50.71;100884.88;4926763;29;20400;-58
2022/07/03 04:52:36;;;;;;;7.72;2.75;;;;;;;25.30;53.40;100896.69;4926912;29;20064;-59
2022/07/03 04:55:21;;;;;;;58.17;11.23;;;;;;;25.78;51.08;100896.66;4920784;29;20046;-59
2022/07/03 04:58:06;;;;;;;267.40;51.97;;;;;;;26.08;49.87;100895.94;4926644;29;20044;-59
2022/07/03 05:00:51;;;;;;;37.38;8.88;;;;;;;26.33;49.05;100896.44;4934627;29;20051;-59
2022/07/03 05:03:37;;;;;;;43.72;9.98;;;;;;;26.35;49.05;100891.25;4917830;29;20054;-59
2022/07/03 05:06:21;;;;;;;25.98;6.20;;;;;;;26.55;48.29;100893.34;4919925;29;20043;-59
2022/07/03 05:09:06;;;;;;;16.48;4.20;;;;;;;26.51;47.66;100896.22;4924883;29;20060;-59
2022/07/03 05:11:52;;;;;;;18.83;2.92;;;;;;;26.58;48.13;100896.09;4926723;29;20050;-59
2022/07/03 05:14:36;;;;;;;9.48;2.80;;;;;;;26.56;48.06;100898.53;4929198;29;20071;-59
2022/07/03 05:17:22;;;;;;;23.58;3.47;;;;;;;26.72;48.25;100906.25;4924040;29;20050;-59
2022/07/03 05:23:11;;;;;;;6.80;2.75;;;;;;;26.86;47.79;100906.06;4928720;29;20044;-59
2022/07/03 05:25:59;;;;;;;15.95;3.38;;;;;;;26.80;47.84;100904.94;4944381;29;20066;-59
2022/07/03 05:28:45;;;;;;;8.20;3.13;;;;;;;26.81;48.11;100906.53;4920005;29;20036;-59
2022/07/03 05:31:30;;;;;;;11.45;2.50;;;;;;;26.97;47.85;100901.13;4927452;29;20051;-59
2022/07/03 05:34:15;;;;;;;10.80;3.05;;;;;;;26.95;47.94;100903.56;4933796;29;20487;-59
2022/07/03 05:37:00;;;;;;;20.95;3.75;;;;;;;26.96;48.01;100907.13;4925852;29;20408;-59
2022/07/03 05:39:45;;;;;;;14.02;3.05;;;;;;;27.10;47.32;100898.53;4935894;29;20399;-59
2022/07/03 05:42:30;;;;;;;10.70;3.22;;;;;;;27.11;46.98;100906.50;4928075;28;20416;-59
2022/07/03 05:45:15;;;;;;;12.18;3.15;;;;;;;27.14;47.32;100902.84;4915636;29;20051;-59
2022/07/03 05:48:00;;;;;;;16.08;3.45;;;;;;;27.20;47.17;100906.72;4934501;28;20063;-59
2022/07/03 05:50:45;;;;;;;10.88;2.70;;;;;;;27.30;46.81;100904.97;4938490;29;20055;-59
2022/07/03 05:53:31;;;;;;;4.18;2.22;;;;;;;27.40;46.67;100911.59;4934123;29;20051;-59
2022/07/03 05:56:17;;;;;;;11.18;3.13;;;;;;;27.45;46.23;100911.09;4934069;29;20423;-59
2022/07/03 05:59:02;;;;;;;7.15;2.60;;;;;;;27.48;46.61;100911.03;4917789;29;20036;-59
2022/07/03 06:01:47;;;;;;;9.40;2.75;;;;;;;27.50;46.34;100910.66;4932081;29;20046;-59
2022/07/03 06:04:32;;;;;;;8.32;2.60;;;;;;;27.56;46.17;100903.34;4936035;28;20051;-59
2022/07/03 06:07:17;;;;;;;13.38;2.70;;;;;;;27.55;45.81;100907.34;4933329;29;20055;-59
2022/07/03 06:10:03;;;;;;;5.13;2.65;;;;;;;27.59;46.37;100908.06;4922006;29;20040;-59
2022/07/03 06:12:48;;;;;;;14.18;2.15;;;;;;;27.66;45.92;100910.75;4914691;29;20055;-58
2022/07/03 06:15:33;;;;;;;7.05;3.03;;;;;;;27.70;45.62;100922.66;4917950;29;20590;-58
2022/07/03 06:18:19;;;;;;;9.75;3.22;;;;;;;27.77;45.77;100916.94;4917811;28;20079;-59
2022/07/03 06:21:04;;;;;;;7.82;2.65;;;;;;;27.80;46.00;100920.88;4928885;29;20051;-59
2022/07/03 06:23:49;;;;;;;4.57;2.00;;;;;;;27.79;46.03;100922.88;4928603;29;20047;-59
2022/07/03 06:26:34;;;;;;;6.85;2.55;;;;;;;27.85;45.46;100931.56;4925430;29;20402;-59
2022/07/03 06:29:20;;;;;;;13.27;2.55;;;;;;;27.88;44.42;100919.53;4934041;29;20720;-59
2022/07/03 06:32:05;;;;;;;15.52;2.88;;;;;;;27.92;44.63;100915.44;4922432;29;20404;-59
2022/07/03 06:34:50;;;;;;;17.88;3.97;;;;;;;27.96;45.15;100920.97;4930039;29;20036;-59
2022/07/03 06:37:36;;;;;;;10.48;2.50;;;;;;;27.99;44.81;100931.28;4924118;29;20070;-59
2022/07/03 06:40:23;;;;;;;17.17;3.42;;;;;;;28.04;44.45;100928.78;4921757;29;20044;-59
2022/07/03 06:43:08;;;;;;;8.27;3.22;;;;;;;28.09;44.34;100928.28;4920859;29;20052;-59
2022/07/03 06:45:53;;;;;;;11.80;2.45;;;;;;;28.18;45.19;100929.75;4918844;29;20047;-59
2022/07/03 06:48:37;;;;;;;11.82;2.63;;;;;;;28.19;45.44;100929.31;4927353;29;20035;-59
2022/07/03 06:51:23;;;;;;;9.82;3.20;;;;;;;28.22;45.58;100925.66;4923103;29;20043;-59
2022/07/03 06:54:08;;;;;;;6.65;2.30;;;;;;;28.27;45.03;100918.78;4921383;29;20063;-60
2022/07/03 06:56:53;;;;;;;18.85;2.75;;;;;;;28.35;44.46;100926.56;4930454;29;20502;-61
2022/07/03 06:59:38;;;;;;;47.42;3.75;;;;;;;28.40;44.63;100917.69;4927234;29;20047;-60
2022/07/03 07:02:23;;;;;;;4.22;2.40;;;;;;;28.52;44.61;100919.03;4927782;29;20400;-60
2022/07/03 07:05:08;;;;;;;22.75;2.35;;;;;;;28.55;44.46;100918.16;4929403;29;20067;-60
2022/07/03 07:07:53;;;;;;;56.90;4.82;;;;;;;28.60;44.19;100914.84;4918895;29;20036;-59
2022/07/03 07:10:38;;;;;;;13.55;2.90;;;;;;;28.62;44.08;100925.63;4920861;29;20371;-60
2022/07/03 07:13:23;;;;;;;10.38;2.78;;;;;;;28.64;44.50;100921.16;4919415;29;20047;-60
2022/07/03 07:16:08;;;;;;;11.07;3.63;;;;;;;28.66;44.08;100913.09;4930138;29;20531;-60
2022/07/03 07:18:53;;;;;;;15.43;2.67;;;;;;;28.68;44.13;100921.88;4918387;29;20043;-60
2022/07/03 07:21:39;;;;;;;15.85;2.17;;;;;;;28.71;44.33;100915.41;4931210;29;20237;-60
2022/07/03 07:24:25;;;;;;;10.40;3.00;;;;;;;28.73;43.76;100917.81;4928122;29;20435;-60
2022/07/03 07:27:10;;;;;;;5.40;2.20;;;;;;;28.74;43.97;100922.19;4933624;29;20411;-60
2022/07/03 07:29:55;;;;;;;16.65;3.22;;;;;;;28.78;43.75;100925.69;4918992;29;20043;-59
2022/07/03 07:32:40;;;;;;;9.02;2.70;;;;;;;28.82;44.11;100923.59;4928644;29;20043;-60
2022/07/03 07:35:25;;;;;;;10.52;2.70;;;;;;;28.83;44.07;100923.16;4934885;29;20050;-59
2022/07/03 07:38:10;;;;;;;14.93;3.60;;;;;;;28.85;44.25;100920.69;4937414;29;20051;-60
2022/07/03 07:40:55;;;;;;;15.98;3.65;;;;;;;28.89;44.30;100921.41;4941008;29;20470;-60
2022/07/03 07:43:41;;;;;;;11.18;2.88;;;;;;;28.95;44.10;100918.09;4932806;29;20059;-60
2022/07/03 07:46:26;;;;;;;10.38;2.60;;;;;;;28.99;44.43;100913.97;4925504;29;20044;-59
2022/07/03 07:49:11;;;;;;;10.70;3.22;;;;;;;29.03;44.02;100911.09;4925166;29;20051;-60
2022/07/03 07:51:56;;;;;;;8.77;3.42;;;;;;;29.06;43.90;100918.59;4936532;29;20044;-60
2022/07/03 07:54:41;;;;;;;8.40;2.83;;;;;;;29.13;43.92;100910.84;4935110;29;20070;-60
2022/07/03 07:57:48;;;;;;;9.82;2.60;;;;;;;29.17;44.15;100908.72;4930146;29;20546;-59
2022/07/03 08:00:32;;;;;;;9.45;2.90;;;;;;;29.21;44.44;100908.63;4936058;29;20054;-60
2022/07/03 08:06:21;;;;;;;12.13;3.13;;;;;;;29.28;43.65;100902.84;4934863;29;20050;-60
2022/07/03 08:09:06;;;;;;;12.13;2.63;;;;;;;29.35;44.15;100904.72;4934100;29;20044;-60
2022/07/03 08:11:53;;;;;;;8.35;2.83;;;;;;;29.40;44.21;100902.19;4936431;29;20059;-60
2022/07/03 08:14:40;;;;;;;24.52;4.28;;;;;;;29.51;44.69;100902.66;4933093;29;20066;-60
2022/07/03 08:17:24;;;;;;;8.88;2.83;;;;;;;29.56;43.70;100902.13;4928613;29;20047;-60
2022/07/03 08:20:10;;;;;;;6.80;2.17;;;;;;;29.56;43.67;100899.34;4933758;29;20217;-60
2022/07/03 08:22:56;;;;;;;11.50;2.40;;;;;;;29.80;43.80;100902.72;4939062;29;20055;-60
2022/07/03 08:25:42;;;;;;;7.50;2.47;;;;;;;30.05;43.02;100893.63;4929401;29;20055;-60
2022/07/03 08:28:27;;;;;;;6.05;2.33;;;;;;;30.09;42.83;100903.50;4927899;29;20415;-60
2022/07/03 08:31:12;;;;;;;7.45;2.50;;;;;;;30.03;42.62;100890.47;4928067;29;20054;-60
2022/07/03 08:33:57;;;;;;;10.23;2.40;;;;;;;30.02;42.60;100895.28;4935365;29;20047;-60
2022/07/03 08:36:43;;;;;;;8.48;2.22;;;;;;;30.07;42.65;100891.19;4934895;29;20039;-60
2022/07/03 08:39:29;;;;;;;6.20;2.20;;;;;;;30.28;41.72;100893.34;4935417;29;20054;-60
2022/07/03 08:42:16;;;;;;;6.22;1.73;;;;;;;30.27;41.20;100888.97;4919436;29;20055;-60
2022/07/03 08:45:01;;;;;;;9.98;2.20;;;;;;;30.34;41.15;100883.13;4916466;29;20051;-60
2022/07/03 08:47:48;;;;;;;8.48;2.25;;;;;;;30.43;40.83;100886.06;4916572;29;20047;-60
2022/07/03 08:50:35;;;;;;;15.45;3.00;;;;;;;30.47;41.47;100886.00;4915853;29;20518;-60
2022/07/03 08:53:21;;;;;;;8.93;2.10;;;;;;;30.49;41.55;100886.31;4926407;29;20043;-64
2022/07/03 08:56:08;;;;;;;12.32;2.50;;;;;;;30.53;40.90;100887.78;4928041;29;20059;-58
2022/07/03 08:58:57;;;;;;;4.60;2.33;;;;;;;30.50;40.81;100883.06;4932725;29;20047;-59
2022/07/03 09:01:46;;;;;;;9.38;2.55;;;;;;;30.61;40.73;100877.13;4926127;29;20050;-61
2022/07/03 09:04:32;;;;;;;14.57;2.10;;;;;;;30.68;40.83;100878.94;4917542;29;20059;-68
2022/07/03 09:07:20;;;;;;;9.10;3.67;;;;;;;30.69;40.69;100877.69;4920031;28;20533;-63
2022/07/03 09:10:07;;;;;;;10.65;2.75;;;;;;;30.77;40.63;100881.84;4929679;29;20055;-63
2022/07/03 09:12:53;;;;;;;5.40;2.10;;;;;;;30.76;40.21;100881.06;4927659;29;20040;-63
2022/07/03 09:15:39;;;;;;;4.40;2.00;;;;;;;30.77;40.25;100879.03;4945372;28;20530;-62
2022/07/03 09:18:43;;;;;;;6.40;1.67;;;;;;;30.72;40.43;100876.78;4927594;29;20421;-62
2022/07/03 09:21:35;;;;;;;7.00;2.00;;;;;;;30.80;40.18;100875.31;4932254;29;20051;-62
2022/07/03 09:24:20;;;;;;;7.97;2.60;;;;;;;30.73;40.37;100867.91;4922132;29;20059;-62
2022/07/03 09:27:15;;;;;;;11.55;1.98;;;;;;;30.91;40.11;100868.13;4937209;29;20050;-64
2022/07/03 09:30:02;;;;;;;4.65;1.67;;;;;;;30.93;39.97;100865.63;4931747;28;20522;-62
2022/07/03 09:32:49;;;;;;;7.43;2.30;;;;;;;30.92;39.93;100863.28;4931404;29;20751;-62
2022/07/03 09:35:34;;;;;;;4.57;2.13;;;;;;;30.97;40.10;100866.31;4932074;29;20046;-64
2022/07/03 09:38:19;;;;;;;5.57;1.77;;;;;;;31.05;40.25;100864.09;4931199;29;20466;-63
2022/07/03 09:41:03;;;;;;;15.68;2.45;;;;;;;31.10;40.08;100866.31;4928846;29;20063;-63
2022/07/03 09:43:48;;;;;;;8.52;2.75;;;;;;;31.20;39.67;100865.16;4931365;29;20039;-62
2022/07/03 09:46:33;;;;;;;13.20;2.65;;;;;;;31.22;39.73;100865.50;4932858;29;20047;-62
2022/07/03 09:49:18;;;;;;;7.47;2.28;;;;;;;31.38;39.04;100870.97;4925101;29;20504;-63
2022/07/03 09:52:05;;;;;;;9.95;1.83;;;;;;;31.43;39.18;100861.97;4932111;29;20070;-62
2022/07/03 09:54:51;;;;;;;3.83;2.10;;;;;;;31.50;39.91;100865.75;4934457;29;20059;-62
2022/07/03 09:57:37;;;;;;;14.32;2.72;;;;;;;31.46;39.25;100862.28;4931378;29;20408;-62
2022/07/03 10:00:24;;;;;;;11.73;3.03;;;;;;;31.53;39.43;100860.03;4933637;29;20488;-63
2022/07/03 10:03:09;;;;;;;6.97;2.50;;;;;;;31.50;39.53;100871.38;4927353;29;20082;-62
2022/07/03 10:06:03;;;;;;;7.30;2.85;;;;;;;31.65;39.99;100873.25;4930524;29;20047;-64
2022/07/03 10:08:48;;;;;;;42.95;4.43;;;;;;;31.72;39.72;100867.38;4925111;29;20051;-62
2022/07/03 10:11:33;;;;;;;8.82;2.53;;;;;;;31.80;38.99;100873.53;4931319;29;20411;-62
2022/07/03 10:14:23;;;;;;;7.45;1.92;;;;;;;31.99;38.84;100874.47;4931833;29;20411;-62
2022/07/03 10:17:09;;;;;;;9.82;2.30;;;;;;;31.96;38.53;100876.16;4929784;29;20407;-64
2022/07/03 10:19:54;;;;;;;5.88;2.22;;;;;;;32.03;38.53;100870.25;4931801;29;20066;-62
2022/07/03 10:22:42;;;;;;;10.45;2.60;;;;;;;32.21;38.32;100875.22;4933482;29;20190;-62
2022/07/03 10:25:27;;;;;;;9.15;2.22;;;;;;;32.24;38.53;100863.84;4914995;29;20059;-63
2022/07/03 10:28:14;;;;;;;10.35;2.55;;;;;;;32.28;38.16;100868.56;4917483;29;20526;-62
2022/07/03 10:30:59;;;;;;;10.52;2.30;;;;;;;32.15;37.90;100860.22;4924717;29;20048;-64
2022/07/03 10:33:45;;;;;;;12.23;2.47;;;;;;;32.36;38.14;100865.00;4929221;29;20047;-62
2022/07/03 10:36:30;;;;;;;11.00;2.42;;;;;;;32.31;38.48;100859.97;4957177;23;20236;-78
2022/07/03 10:39:29;;;;;;;7.65;2.13;;;;;;;32.18;38.05;100862.88;4942748;29;20058;-80
2022/07/03 10:45:35;;;;;;;7.65;2.10;;;;;;;32.43;38.21;100863.94;4953377;28;20046;-81
2022/07/03 10:48:20;;;;;;;11.45;2.00;;;;;;;32.72;37.68;100863.59;4947993;28;20508;-79
2022/07/03 10:51:12;;;;;;;4.47;2.42;;;;;;;32.81;37.14;100858.81;4936349;29;20043;-80
2022/07/03 10:54:23;;;;;;;8.27;2.03;;;;;;;32.63;37.44;100851.03;4936808;29;20051;-80
2022/07/03 10:57:16;;;;;;;4.28;2.30;;;;;;;32.59;37.71;100852.44;4935673;29;20054;-79
2022/07/03 11:00:05;;;;;;;9.82;2.30;;;;;;;32.92;36.40;100852.72;4951846;28;20416;-80
2022/07/03 11:02:52;;;;;;;8.85;2.63;;;;;;;33.09;35.85;100849.16;4936770;29;20405;-80
2022/07/03 11:05:37;;;;;;;8.25;2.60;;;;;;;33.18;36.86;100844.81;4936358;29;20055;-80
2022/07/03 11:08:22;;;;;;;6.88;2.25;;;;;;;33.36;35.80;100842.81;4935445;29;20078;-80
2022/07/03 11:11:57;;;;;;;8.30;2.60;;;;;;;33.53;34.69;100849.69;4937471;29;20047;-81
2022/07/03 11:14:42;;;;;;;7.47;2.22;;;;;;;33.68;33.94;100849.84;4938624;29;20051;-81
2022/07/03 11:17:28;;;;;;;5.72;2.30;;;;;;;33.59;34.65;100849.06;4935633;29;20043;-80
2022/07/03 11:20:25;;;;;;;9.43;2.58;;;;;;;33.65;34.75;100844.34;4933768;29;20417;-80
2022/07/03 11:23:09;;;;;;;4.85;2.08;;;;;;;33.57;35.05;100846.72;4936977;29;20058;-82
2022/07/03 11:25:58;;;;;;;6.30;2.42;;;;;;;33.33;35.75;100834.47;4934692;29;20433;-81
2022/07/03 11:28:42;;;;;;;6.43;1.65;;;;;;;33.27;35.39;100827.94;4931746;29;20071;-81
2022/07/03 11:31:27;;;;;;;5.95;2.20;;;;;;;33.39;36.02;100832.59;4928688;29;20067;-80
2022/07/03 11:34:19;;;;;;;4.65;2.20;;;;;;;33.42;36.57;100826.03;4930408;29;20054;-81
2022/07/03 11:37:04;;;;;;;8.45;2.60;;;;;;;33.40;35.75;100817.25;4930900;29;20055;-81
2022/07/03 11:39:53;;;;;;;5.53;2.30;;;;;;;33.49;35.43;100820.06;4945834;28;20047;-81
2022/07/03 11:42:37;;;;;;;4.57;2.45;;;;;;;33.64;34.34;100815.34;4929559;29;20047;-82
2022/07/03 11:45:22;;;;;;;6.85;2.35;;;;;;;33.66;34.44;100815.69;4930176;29;20082;-82
2022/07/03 11:48:16;;;;;;;6.05;2.50;;;;;;;33.86;33.66;100810.34;4923001;29;20051;-80
2022/07/03 11:51:04;;;;;;;7.88;2.00;;;;;;;34.13;33.51;100809.50;4948331;28;20042;-81
2022/07/03 11:53:48;;;;;;;3.80;1.75;;;;;;;34.00;33.58;100808.09;4936257;29;20452;-81
2022/07/03 11:56:35;;;;;;;18.13;2.55;;;;;;;34.08;33.86;100800.88;4930936;29;20050;-81
2022/07/03 11:59:20;;;;;;;4.75;2.20;;;;;;;34.08;33.34;100803.72;4941319;29;20032;-81
2022/07/03 12:02:05;;;;;;;8.10;2.38;;;;;;;34.01;34.46;100798.38;4937280;29;20059;-81
2022/07/03 12:04:50;;;;;;;10.02;2.47;;;;;;;34.09;33.99;100793.97;4936750;29;20055;-80
2022/07/03 12:07:35;;;;;;;7.78;2.30;;;;;;;34.22;33.75;100791.75;4935738;29;20051;-81
2022/07/03 12:10:20;;;;;;;10.85;2.55;;;;;;;34.15;34.47;100792.84;4929690;29;20043;-81
2022/07/03 12:13:18;;;;;;;7.53;2.50;;;;;;;33.99;34.47;100789.59;4933213;29;20051;-82
2022/07/03 12:16:12;;;;;;;7.38;2.00;;;;;;;34.09;34.04;100786.28;4936876;29;20031;-81
2022/07/03 12:19:06;;;;;;;4.50;2.53;;;;;;;33.95;33.73;100778.47;4935953;29;20060;-78
2022/07/03 12:21:51;;;;;;;9.27;1.95;;;;;;;33.98;33.31;100779.59;4937721;28;20051;-82
2022/07/03 12:24:36;;;;;;;6.43;2.38;;;;;;;34.05;33.29;100782.06;4931755;29;20059;-80
2022/07/03 12:27:21;;;;;;;5.32;2.08;;;;;;;33.91;34.15;100772.22;4934773;29;20046;-80
2022/07/03 12:30:08;;;;;;;11.20;2.70;;;;;;;33.84;34.08;100772.56;4934250;29;20524;-81
2022/07/03 12:32:56;;;;;;;11.70;2.72;;;;;;;33.75;34.85;100776.19;4931612;29;20039;-80
2022/07/03 12:35:41;;;;;;;6.85;2.03;;;;;;;33.61;34.79;100771.19;4950749;28;20047;-81
2022/07/03 12:38:29;;;;;;;7.43;2.13;;;;;;;33.81;34.08;100768.66;4933603;29;20055;-80
2022/07/03 12:41:15;;;;;;;6.05;2.20;;;;;;;34.11;33.29;100761.19;4936348;29;20058;-80
2022/07/03 12:44:01;;;;;;;6.40;2.22;;;;;;;34.03;34.20;100774.09;4936910;29;20051;-79
2022/07/03 12:46:47;;;;;;;7.13;2.15;;;;;;;33.91;34.02;100764.56;4933546;29;20836;-80
2022/07/03 12:49:32;;;;;;;8.18;2.35;;;;;;;34.12;33.49;100759.94;4931627;29;20051;-80
2022/07/03 12:52:17;;;;;;;4.65;2.05;;;;;;;34.24;32.92;100749.69;4934675;29;20066;-80
2022/07/03 12:55:03;;;;;;;4.05;1.92;;;;;;;34.35;32.92;100758.44;4934340;29;20050;-81
2022/07/03 13:00:51;;;;;;;12.20;2.55;;;;;;;34.58;32.14;100746.38;4935945;29;20048;-80
2022/07/03 13:03:39;;;;;;;7.43;3.15;;;;;;;34.67;31.83;100740.66;4933995;29;20048;-82
2022/07/03 13:06:24;;;;;;;6.82;2.20;;;;;;;34.60;32.65;100741.03;4933666;29;20531;-80
2022/07/03 13:09:10;;;;;;;7.38;2.78;;;;;;;34.57;32.86;100741.22;4934753;29;20425;-81
2022/07/03 13:11:56;;;;;;;10.63;2.80;;;;;;;34.54;33.37;100745.75;4937859;29;20527;-78
2022/07/03 13:14:40;;;;;;;7.35;2.53;;;;;;;34.56;33.20;100742.47;4932744;29;20044;-80